createdAt,value
2023-09-08T00:03:22.858Z,55.14
2023-09-08T00:08:25.192Z,55.31
2023-09-08T00:13:26.603Z,55.65
2023-09-08T00:18:28.011Z,55.11
2023-09-08T00:23:29.396Z,55.32
2023-09-08T00:28:30.725Z,55.03
2023-09-08T00:33:32.168Z,54.94
2023-09-08T00:38:34.003Z,55.08
2023-09-08T00:43:35.570Z,55.15
2023-09-08T00:48:38.757Z,55.34
2023-09-08T00:53:40.118Z,55.63
2023-09-08T00:58:41.824Z,55.42
2023-09-08T01:03:44.521Z,55.75
2023-09-08T01:08:46.375Z,55.67
2023-09-08T01:13:47.853Z,56.24
2023-09-08T01:18:50.591Z,56.43
2023-09-08T01:24:22.574Z,56.63
2023-09-08T01:29:26.611Z,57.06
2023-09-08T01:34:28.241Z,57.49
2023-09-08T01:39:29.670Z,57.90
2023-09-08T01:44:31.251Z,58.11
2023-09-08T01:49:32.609Z,57.88
2023-09-08T01:54:34.004Z,58.04
2023-09-08T01:59:35.769Z,58.42
2023-09-08T02:04:37.391Z,58.43
2023-09-08T02:09:39.041Z,58.81
2023-09-08T02:14:40.408Z,58.45
2023-09-08T02:19:41.975Z,59.14
2023-09-08T02:24:43.384Z,58.54
2023-09-08T02:29:47.072Z,58.80
2023-09-08T02:34:49.729Z,59.00
2023-09-08T02:39:51.113Z,59.08
2023-09-08T02:44:52.979Z,58.03
2023-09-08T02:49:54.303Z,59.10
2023-09-08T02:54:55.717Z,59.00
2023-09-08T02:59:57.603Z,58.89
2023-09-08T03:04:59.091Z,59.17
2023-09-08T03:10:00.705Z,58.92
2023-09-08T03:15:05.382Z,58.85
2023-09-08T03:20:08.769Z,58.84
2023-09-08T03:25:10.306Z,59.09
2023-09-08T03:30:12.048Z,59.39
2023-09-08T03:35:13.386Z,59.20
2023-09-08T03:40:14.950Z,58.95
2023-09-08T03:45:16.597Z,59.14
2023-09-08T03:50:18.021Z,58.92
2023-09-08T03:55:19.909Z,59.82
2023-09-08T04:00:23.205Z,60.44
2023-09-08T04:05:24.725Z,60.26
2023-09-08T04:10:26.529Z,59.91
2023-09-08T04:15:28.038Z,60.78
2023-09-08T04:20:29.395Z,61.13
2023-09-08T04:25:30.698Z,61.40
2023-09-08T04:30:32.119Z,61.24
2023-09-08T04:35:33.606Z,61.41
2023-09-08T04:40:34.955Z,62.24
2023-09-08T04:45:36.320Z,61.49
2023-09-08T04:50:37.691Z,60.78
2023-09-08T04:55:39.012Z,61.26
2023-09-08T05:00:43.547Z,62.13
2023-09-08T05:05:46.028Z,61.80
2023-09-08T05:10:47.477Z,61.80
2023-09-08T05:15:49.763Z,61.85
2023-09-08T05:20:51.283Z,61.77
2023-09-08T05:25:52.601Z,61.74
2023-09-08T05:30:54.893Z,61.67
2023-09-08T05:35:56.977Z,61.34
2023-09-08T05:40:58.453Z,61.60
2023-09-08T05:45:59.935Z,61.60
2023-09-08T05:51:03.264Z,61.17
2023-09-08T05:56:04.866Z,61.69
2023-09-08T06:01:06.287Z,61.94
2023-09-08T06:06:07.706Z,62.07
2023-09-08T06:11:09.128Z,62.50
2023-09-08T06:16:10.586Z,62.39
2023-09-08T06:21:12.010Z,61.27
2023-09-08T06:26:13.395Z,61.36
2023-09-08T06:31:15.795Z,61.31
2023-09-08T06:36:17.396Z,60.60
2023-09-08T06:41:19.024Z,60.33
2023-09-08T06:46:20.442Z,59.72
2023-09-08T06:51:21.836Z,60.32
2023-09-08T06:56:23.537Z,58.37
2023-09-08T07:01:25.807Z,59.27
2023-09-08T07:06:27.221Z,58.25
2023-09-08T07:11:28.748Z,57.54
2023-09-08T07:16:39.654Z,57.52
2023-09-08T07:21:41.490Z,57.79
2023-09-08T07:26:43.902Z,57.02
2023-09-08T07:31:45.700Z,56.45
2023-09-08T07:36:47.135Z,57.80
2023-09-08T07:41:48.555Z,56.38
2023-09-08T07:46:52.399Z,54.98
2023-09-08T07:51:54.381Z,54.76
2023-09-08T07:56:55.850Z,55.06
2023-09-08T08:01:57.273Z,54.36
2023-09-08T08:06:59.021Z,53.17
2023-09-08T08:12:00.865Z,52.82
2023-09-08T08:17:02.419Z,52.33
2023-09-08T08:22:04.654Z,51.54
2023-09-08T08:27:06.118Z,50.85
2023-09-08T08:32:08.621Z,51.06
2023-09-08T08:37:12.545Z,50.40
2023-09-08T08:42:16.056Z,50.08
2023-09-08T08:47:20.435Z,49.69
2023-09-08T08:52:22.601Z,49.38
2023-09-08T08:57:24.458Z,49.23
2023-09-08T09:02:26.907Z,48.46
2023-09-08T09:07:28.703Z,48.24
2023-09-08T09:12:30.674Z,47.68
2023-09-08T09:17:36.363Z,46.67
2023-09-08T09:22:38.494Z,46.78
2023-09-08T09:27:42.160Z,46.14
2023-09-08T09:32:44.267Z,45.80
2023-09-08T09:37:48.725Z,44.49
2023-09-08T09:42:52.430Z,43.29
2023-09-08T09:47:53.946Z,43.75
2023-09-08T09:52:59.690Z,43.30
2023-09-08T09:58:05.349Z,42.36
2023-09-08T10:03:07.467Z,41.51
2023-09-08T10:08:09.382Z,41.28
2023-09-08T10:13:13.906Z,41.29
2023-09-08T10:18:20.661Z,40.91
2023-09-08T10:23:37.516Z,41.27
2023-09-08T10:28:40.750Z,40.83
2023-09-08T10:33:44.352Z,41.22
2023-09-08T10:38:48.732Z,40.56
2023-09-08T10:43:58.389Z,40.56
2023-09-08T10:49:09.011Z,39.84
2023-09-08T10:54:11.291Z,39.94
2023-09-08T10:59:13.132Z,38.94
2023-09-08T11:04:20.195Z,38.15
2023-09-08T11:09:22.413Z,37.23
2023-09-08T11:14:24.409Z,35.90
2023-09-08T11:19:25.871Z,36.22
2023-09-08T11:24:27.823Z,34.70
2023-09-08T11:29:30.186Z,33.65
2023-09-08T11:34:31.537Z,34.36
2023-09-08T11:39:37.378Z,34.13
2023-09-08T11:44:39.334Z,33.32
2023-09-08T11:49:42.159Z,33.73
2023-09-08T11:55:00.133Z,31.86
2023-09-08T12:00:06.835Z,31.64
2023-09-08T12:05:22.827Z,30.11
2023-09-08T12:10:26.324Z,30.00
2023-09-08T12:15:35.779Z,29.21
2023-09-08T12:20:41.265Z,29.11
2023-09-08T12:26:08.693Z,28.97
2023-09-08T12:31:14.890Z,28.12
2023-09-08T12:36:18.344Z,27.64
2023-09-08T12:41:20.786Z,27.90
2023-09-08T12:46:23.115Z,28.87
2023-09-08T12:51:25.430Z,27.81
2023-09-08T12:56:26.972Z,27.41
2023-09-08T13:01:29.812Z,28.22
2023-09-08T13:06:34.022Z,29.69
2023-09-08T13:11:35.468Z,28.42
2023-09-08T13:16:37.249Z,28.60
2023-09-08T13:21:38.911Z,28.69
2023-09-08T13:26:41.868Z,29.24
2023-09-08T13:31:43.778Z,28.74
2023-09-08T13:36:45.222Z,30.41
2023-09-08T13:41:57.698Z,29.57
2023-09-08T13:46:59.520Z,30.32
2023-09-08T13:52:02.545Z,30.31
2023-09-08T13:57:08.707Z,30.53
2023-09-08T14:02:37.940Z,30.78
2023-09-08T14:12:36.389Z,29.49
2023-09-08T14:17:37.926Z,31.13
2023-09-08T14:22:39.679Z,31.48
2023-09-08T14:27:41.265Z,32.41
2023-09-08T14:32:42.898Z,33.39
2023-09-08T14:37:44.633Z,32.73
2023-09-08T14:42:46.282Z,33.00
2023-09-08T14:47:47.823Z,33.64
2023-09-08T14:52:51.432Z,33.99
2023-09-08T14:57:52.919Z,33.29
2023-09-08T15:02:54.967Z,34.04
2023-09-08T15:07:56.353Z,33.75
2023-09-08T15:12:57.788Z,34.48
2023-09-08T15:17:59.931Z,34.73
2023-09-08T15:23:01.525Z,34.84
2023-09-08T15:28:03.070Z,34.31
2023-09-08T15:33:07.309Z,34.51
2023-09-08T15:38:08.929Z,35.05
2023-09-08T15:43:10.503Z,35.64
2023-09-08T15:48:13.751Z,35.38
2023-09-08T15:53:15.430Z,35.71
2023-09-08T15:58:17.021Z,35.36
2023-09-08T16:03:18.659Z,35.46
2023-09-08T16:08:21.002Z,35.78
2023-09-08T16:13:23.744Z,35.84
2023-09-08T16:18:26.195Z,36.18
2023-09-08T16:23:28.038Z,36.37
2023-09-08T16:28:29.638Z,36.89
2023-09-08T16:33:31.347Z,36.92
2023-09-08T16:38:35.853Z,36.71
2023-09-08T16:43:37.458Z,36.60
2023-09-08T16:48:39.047Z,37.29
2023-09-08T16:53:40.501Z,37.45
2023-09-08T16:58:42.108Z,37.30
2023-09-08T17:03:43.708Z,37.57
2023-09-08T17:08:45.333Z,38.08
2023-09-08T17:13:46.722Z,38.12
2023-09-08T17:18:48.303Z,38.44
2023-09-08T17:23:50.019Z,38.83
2023-09-08T17:28:51.922Z,39.07
2023-09-08T17:33:53.969Z,39.63
2023-09-08T17:38:55.892Z,40.06
2023-09-08T17:43:58.381Z,40.37
2023-09-08T17:48:59.770Z,40.48
2023-09-08T17:54:01.160Z,41.12
2023-09-08T17:59:02.631Z,41.43
2023-09-08T18:04:04.354Z,41.87
2023-09-08T18:09:05.991Z,42.04
2023-09-08T18:14:07.716Z,42.00
2023-09-08T18:19:09.363Z,42.35
2023-09-08T18:24:10.816Z,42.55
2023-09-08T18:29:12.607Z,43.08
2023-09-08T18:34:14.287Z,43.55
2023-09-08T18:39:16.372Z,43.77
2023-09-08T18:44:17.862Z,44.05
2023-09-08T18:49:22.980Z,44.15
2023-09-08T18:54:29.342Z,44.17
2023-09-08T18:59:30.936Z,44.70
2023-09-08T19:04:32.823Z,44.61
2023-09-08T19:09:34.543Z,44.81
2023-09-08T19:14:36.076Z,44.91
2023-09-08T19:19:37.538Z,45.40
2023-09-08T19:24:42.859Z,45.25
2023-09-08T19:29:49.044Z,45.84
2023-09-08T19:34:51.291Z,45.79
2023-09-08T19:39:52.816Z,46.12
2023-09-08T19:44:54.282Z,46.74
2023-09-08T19:49:56.087Z,46.79
2023-09-08T19:54:57.643Z,47.04
2023-09-08T19:59:59.022Z,47.12
2023-09-08T20:05:00.491Z,47.27
2023-09-08T20:10:02.174Z,48.20
2023-09-08T20:15:03.831Z,47.97
2023-09-08T20:20:06.121Z,48.22
2023-09-08T20:25:08.449Z,48.44
2023-09-08T20:30:10.467Z,48.81
2023-09-08T20:35:12.032Z,48.66
2023-09-08T20:40:13.479Z,49.69
2023-09-08T20:45:14.935Z,49.68
2023-09-08T20:50:16.741Z,49.67
2023-09-08T20:55:18.166Z,50.39
2023-09-08T21:00:19.897Z,50.23
2023-09-08T21:05:21.479Z,50.33
2023-09-08T21:10:22.973Z,50.62
2023-09-08T21:15:24.588Z,50.67
2023-09-08T21:20:26.181Z,51.49
2023-09-08T21:25:27.650Z,51.39
2023-09-08T21:30:29.257Z,51.72
2023-09-08T21:35:32.099Z,51.59
2023-09-08T21:40:33.499Z,51.68
2023-09-08T21:45:34.890Z,52.13
2023-09-08T21:50:36.323Z,52.14
2023-09-08T21:55:37.669Z,52.16
2023-09-08T22:00:39.102Z,52.47
2023-09-08T22:05:44.133Z,52.55
2023-09-08T22:10:45.593Z,52.56
2023-09-08T22:15:47.065Z,52.63
2023-09-08T22:20:55.095Z,53.33
2023-09-08T22:25:56.741Z,54.14
2023-09-08T22:30:58.255Z,53.78
2023-09-08T22:35:59.877Z,54.07
2023-09-08T22:41:02.150Z,54.72
2023-09-08T22:46:04.283Z,54.77
2023-09-08T22:51:05.693Z,55.05
2023-09-08T22:56:08.246Z,54.89
2023-09-08T23:01:10.021Z,55.03
2023-09-08T23:06:13.558Z,54.77
2023-09-08T23:11:15.348Z,54.65
2023-09-08T23:16:17.048Z,54.37
2023-09-08T23:21:18.530Z,54.92
2023-09-08T23:26:20.077Z,55.21
2023-09-08T23:31:22.356Z,55.91
2023-09-08T23:36:25.233Z,55.75
2023-09-08T23:41:26.875Z,56.48
2023-09-08T23:46:28.673Z,56.23
2023-09-08T23:51:30.402Z,56.63
2023-09-08T23:56:34.017Z,56.54
